SondeTracker

Meteorological Radiosondes Database

Operations

Sounding was ended - last measurement: 2022-12-06 23:50:57z

MAP
About Radiosonde

Number: U3534496

Launch Site: Shearwater [NS] (CA)

Type: RS41

AUX: NO

Frequency: 403.001 MHz

Max Speed: 70 km/h at 10017 m

Average Speed: 35.92 km/h

Max Altitude: 10682 m

Average Ascent Speed: 5.07 m/s

Average Descent Speed: 0.00 m/s

Status: UNKNOWN

Status Changes
Launch Site Type AUX Frequency Status Finder Landing Point Description Changes made by
APRS Statistics

Received Frames: 53

First Frame [UTC]: 2022-12-06 23:20:25z

Last Frame [UTC]: 2022-12-06 23:50:57z

Receivers: VE1RUS

Flight Time: 00:30:32 h

Distance From First Measurement: 12.01 km

Nearest City: [0.00 km]

Nearest Hunter: VE1DAY [10.35 km]

Ground Altitude: 22 m

Distance from QTH: 0.00 km

APRS Data
Receiver Number Date/Time [UTC] φ λ Course [°] Speed [km/h] Altitude [m] Description
VE1RUSU35344962022-12-06 23:50:5744.6714-63.38491166310682Clb=4.6m/s t=-61.3C h=63.1% p=-1.0hPa 403.001 MHz Type=RS41-SG ser=U3534496 Radiosonde
VE1RUSU35344962022-12-06 23:50:5544.6734-63.39141125610483Clb=7.2m/s t=-60.1C h=72.9% p=-1.0hPa 403.001 MHz Type=RS41-SG ser=U3534496 Radiosonde
VE1RUSU35344962022-12-06 23:50:5244.6775-63.40221186510137Clb=6.6m/s t=-57.1C h=58.9% p=-1.0hPa 403.001 MHz Type=RS41-SG ser=U3534496 Radiosonde
VE1RUSU35344962022-12-06 23:50:3944.679-63.40721117010017Clb=4.4m/s t=-55.9C h=54.7% p=-1.0hPa 403.001 MHz Type=RS41-SG ser=U3534496 Radiosonde
VE1RUSU35344962022-12-06 23:49:5644.6807-63.4126115679868Clb=4.7m/s t=-54.5C h=54.5% p=-1.0hPa 403.001 MHz Type=RS41-SG ser=U3534496 Radiosonde
VE1RUSU35344962022-12-06 23:49:0744.6827-63.4183130529716Clb=4.8m/s t=-53.1C h=60.8% p=-1.0hPa 403.001 MHz Type=RS41-SG ser=U3534496 Radiosonde
VE1RUSU35344962022-12-06 23:47:3844.6867-63.4312107549352Clb=5.1m/s t=-49.8C h=56.2% p=-1.0hPa 403.001 MHz Type=RS41-SG ser=U3534496 Radiosonde
VE1RUSU35344962022-12-06 23:46:4544.6877-63.4352111489256Clb=3.6m/s t=-48.9C h=54.4% p=-1.0hPa 403.001 MHz Type=RS41-SG ser=U3534496 Radiosonde
VE1RUSU35344962022-12-06 23:45:5544.6891-63.4404109449108Clb=4.7m/s t=-47.6C h=55.3% p=-1.0hPa 403.001 MHz Type=RS41-SG ser=U3534496 Radiosonde
VE1RUSU35344962022-12-06 23:44:2044.6918-63.4512113528764Clb=4.4m/s t=-44.4C h=56.8% p=-1.0hPa 403.001 MHz Type=RS41-SG ser=U3534496 Radiosonde
VE1RUSU35344962022-12-06 23:43:4344.6943-63.460797658504Clb=4.8m/s t=-42.1C h=60.7% p=-1.0hPa 403.001 MHz Type=RS41-SG ser=U3534496 Radiosonde
VE1RUSU35344962022-12-06 23:43:2744.6945-63.4643104568384Clb=5.4m/s t=-40.9C h=55.8% p=-1.0hPa 403.001 MHz Type=RS41-SG ser=U3534496 Radiosonde
VE1RUSU35344962022-12-06 23:43:0244.6956-63.4692101578235Clb=5.1m/s t=-39.5C h=52.0% p=-1.0hPa 403.001 MHz Type=RS41-SG ser=U3534496 Radiosonde
VE1RUSU35344962022-12-06 23:42:5944.6959-63.472198418167Clb=5.6m/s t=-38.8C h=50.2% p=-1.0hPa 403.001 MHz Type=RS41-SG ser=U3534496 Radiosonde
VE1RUSU35344962022-12-06 23:41:4044.696-63.481871527782Clb=7.5m/s t=-35.7C h=36.8% p=-1.0hPa 403.001 MHz Type=RS41-SG ser=U3534496 Radiosonde
VE1RUSU35344962022-12-06 23:40:5344.6954-63.485282397660Clb=4.5m/s t=-34.5C h=33.3% p=-1.0hPa 403.001 MHz Type=RS41-SG ser=U3534496 Radiosonde
VE1RUSU35344962022-12-06 23:39:3444.6937-63.494782417340Clb=4.7m/s t=-31.6C h=27.0% p=-1.0hPa 403.001 MHz Type=RS41-SG ser=U3534496 Radiosonde
VE1RUSU35344962022-12-06 23:39:0444.6934-63.498885467218Clb=5.0m/s t=-30.6C h=30.4% p=-1.0hPa 403.001 MHz Type=RS41-SG ser=U3534496 Radiosonde
VE1RUSU35344962022-12-06 23:38:3244.6927-63.502781337062Clb=5.6m/s t=-29.6C h=48.7% p=-1.0hPa 403.001 MHz Type=RS41-SG ser=U3534496 Radiosonde
VE1RUSU35344962022-12-06 23:38:1544.6927-63.50782356906Clb=4.7m/s t=-28.2C h=53.4% p=-1.0hPa 403.001 MHz Type=RS41-SG ser=U3534496 Radiosonde
VE1RUSU35344962022-12-06 23:38:0744.6928-63.510687336734Clb=4.2m/s t=-27.2C h=68.3% p=-1.0hPa 403.001 MHz Type=RS41-SG ser=U3534496 Radiosonde
VE1RUSU35344962022-12-06 23:37:2344.6927-63.514682416582Clb=5.6m/s t=-26.1C h=56.9% p=-1.0hPa 403.001 MHz Type=RS41-SG ser=U3534496 Radiosonde
VE1RUSU35344962022-12-06 23:36:3744.6927-63.518668316436Clb=5.8m/s t=-24.9C h=48.8% p=-1.0hPa 403.001 MHz Type=RS41-SG ser=U3534496 Radiosonde
VE1RUSU35344962022-12-06 23:35:5744.6925-63.522380436267Clb=4.0m/s t=-23.6C h=51.1% p=-1.0hPa 403.001 MHz Type=RS41-SG ser=U3534496 Radiosonde
VE1RUSU35344962022-12-06 23:35:2644.6918-63.526156356087Clb=6.3m/s t=-23.1C h=71.9% p=-1.0hPa 403.001 MHz Type=RS41-SG ser=U3534496 Radiosonde
VE1RUSU35344962022-12-06 23:34:5544.6901-63.529942305874Clb=6.1m/s t=-21.7C h=15.6% p=-1.0hPa 403.001 MHz Type=RS41-SG ser=U3534496 Radiosonde
VE1RUSU35344962022-12-06 23:34:2444.6889-63.531325175749Clb=4.3m/s t=-20.7C h=17.6% p=-1.0hPa 403.001 MHz Type=RS41-SG ser=U3534496 Radiosonde
VE1RUSU35344962022-12-06 23:33:5344.6873-63.533137305610Clb=4.9m/s t=-19.6C h=18.0% p=-1.0hPa 403.001 MHz Type=RS41-SG ser=U3534496 Radiosonde
VE1RUSU35344962022-12-06 23:33:4544.6856-63.536160335420Clb=4.2m/s t=-18.2C h=8.9% p=-1.0hPa 403.001 MHz Type=RS41-SG ser=U3534496 Radiosonde
VE1RUSU35344962022-12-06 23:33:0844.685-63.537833355304Clb=5.9m/s t=-17.4C h=9.8% p=-1.0hPa 403.001 MHz Type=RS41-SG ser=U3534496 Radiosonde
VE1RUSU35344962022-12-06 23:32:2544.6833-63.5399356335134Clb=6.9m/s t=-16.6C h=3.1% p=-1.0hPa 403.001 MHz Type=RS41-SG ser=U3534496 Radiosonde
VE1RUSU35344962022-12-06 23:31:4844.6811-63.540324354967Clb=5.0m/s t=-15.9C h=4.1% p=-1.0hPa 403.001 MHz Type=RS41-SG ser=U3534496 Radiosonde
VE1RUSU35344962022-12-06 23:31:1744.679-63.5407344224805Clb=4.2m/s t=-14.7C h=5.1% p=-1.0hPa 403.001 MHz Type=RS41-SG ser=U3534496 Radiosonde
VE1RUSU35344962022-12-06 23:30:4644.6777-63.541531624658Clb=6.4m/s t=-13.4C h=4.3% p=-1.0hPa 403.001 MHz Type=RS41-SG ser=U3534496 Radiosonde
VE1RUSU35344962022-12-06 23:30:1544.6766-63.541780114483Clb=3.2m/s t=-11.9C h=3.9% p=-1.0hPa 403.001 MHz Type=RS41-SG ser=U3534496 Radiosonde
VE1RUSU35344962022-12-06 23:29:2244.6743-63.54283444186Clb=6.7m/s t=-10.0C h=9.1% p=-1.0hPa 403.001 MHz Type=RS41-SG ser=U3534496 Radiosonde
VE1RUSU35344962022-12-06 23:28:5044.6729-63.5426320244015Clb=4.6m/s t=-8.6C h=5.7% p=-1.0hPa 403.001 MHz Type=RS41-SG ser=U3534496 Radiosonde
VE1RUSU35344962022-12-06 23:28:1144.6715-63.54231243865Clb=5.9m/s t=-7.7C h=5.6% p=-1.0hPa 403.001 MHz Type=RS41-SG ser=U3534496 Radiosonde
VE1RUSU35344962022-12-06 23:27:4044.6699-63.541934893699Clb=5.7m/s t=-6.2C h=7.3% p=-1.0hPa 403.001 MHz Type=RS41-SG ser=U3534496 Radiosonde
VE1RUSU35344962022-12-06 23:27:0944.6681-63.5418359353522Clb=8.0m/s t=-5.0C h=10.0% p=-1.0hPa 403.001 MHz Type=RS41-SG ser=U3534496 Radiosonde
VE1RUSU35344962022-12-06 23:26:3844.667-63.541924623360Clb=4.0m/s t=-4.0C h=10.3% p=-1.0hPa 403.001 MHz Type=RS41-SG ser=U3534496 Radiosonde
VE1RUSU35344962022-12-06 23:26:0644.6658-63.5412303203200Clb=5.8m/s t=-3.1C h=11.6% p=-1.0hPa 403.001 MHz Type=RS41-SG ser=U3534496 Radiosonde
VE1RUSU35344962022-12-06 23:25:3544.6639-63.5404312313025Clb=5.2m/s t=-2.8C h=14.3% p=-1.0hPa 403.001 MHz Type=RS41-SG ser=U3534496 Radiosonde
VE1RUSU35344962022-12-06 23:25:1144.6621-63.539535292863Clb=4.9m/s t=-2.2C h=16.0% p=-1.0hPa 403.001 MHz Type=RS41-SG ser=U3534496 Radiosonde
VE1RUSU35344962022-12-06 23:24:3944.6604-63.5389340262687Clb=6.0m/s t=-1.2C h=16.9% p=-1.0hPa 403.001 MHz Type=RS41-SG ser=U3534496 Radiosonde
VE1RUSU35344962022-12-06 23:24:0244.6586-63.5378355282531Clb=4.4m/s t=-0.0C h=13.6% p=-1.0hPa 403.001 MHz Type=RS41-SG ser=U3534496 Radiosonde
VE1RUSU35344962022-12-06 23:23:3144.6569-63.5377356302372Clb=7.7m/s t=0.8C h=5.7% p=-1.0hPa 403.001 MHz Type=RS41-SG ser=U3534496 Radiosonde
VE1RUSU35344962022-12-06 23:23:0044.6549-63.5371348332213Clb=4.9m/s t=1.8C h=3.8% p=-1.0hPa 403.001 MHz Type=RS41 ser=U3534496 Radiosonde
VE1RUSU35344962022-12-06 23:22:2944.6529-63.537310312065Clb=4.6m/s t=2.0C h=4.7% p=-1.0hPa 403.001 MHz Type=RS41 ser=U3534496 Radiosonde
VE1RUSU35344962022-12-06 23:21:5844.6503-63.5364326371912Clb=5.1m/s t=-273.0C h=-1.0% p=-1.0hPa 403.001 MHz Type=RS41 ser=U3534496 Radiosonde
VE1RUSU35344962022-12-06 23:21:2744.648-63.5351327311734Clb=5.6m/s t=-273.0C h=-1.0% p=-1.0hPa 403.001 MHz Type=RS41 ser=U3534496 Radiosonde
VE1RUSU35344962022-12-06 23:20:5644.646-63.5338320351579Clb=6.5m/s t=-273.0C h=-1.0% p=-1.0hPa 403.001 MHz Type=RS41 ser=U3534496 Radiosonde
VE1RUSU35344962022-12-06 23:20:2544.6437-63.5317323281388Clb=6.1m/s t=-273.0C h=-1.0% p=-1.0hPa 403.001 MHz Type=RS41 ser=U3534496 Radiosonde